Time;durP1;ratioP1;P1;durP2;ratioP2;P2;SDS_P1;SDS_P2;PMS_P1;PMS_P2;Temp;Humidity;BMP_temperature;BMP_pressure;BME280_temperature;BME280_humidity;BME280_pressure;Samples;Min_cycle;Max_cycle;Signal;HPM_P1;HPM_P2
2022/01/01 00:00:42;;;;;;;39.47;13.43;;;11.10;99.90;;;;;;5094766;28;20016;-72
2022/01/01 00:03:07;;;;;;;58.58;16.98;;;11.20;99.90;;;;;;5083696;28;20099;-72
2022/01/01 00:05:33;;;;;;;54.28;16.58;;;11.20;99.90;;;;;;5076552;28;20024;-72
2022/01/01 00:08:00;;;;;;;44.10;14.57;;;11.10;99.90;;;;;;5076597;28;20028;-72
2022/01/01 00:10:26;;;;;;;60.65;16.30;;;11.10;99.90;;;;;;5076378;28;20020;-72
2022/01/01 00:12:52;;;;;;;45.13;14.38;;;11.20;99.90;;;;;;5091098;28;20016;-72
2022/01/01 00:15:19;;;;;;;45.63;14.93;;;11.10;99.90;;;;;;5078583;28;20021;-72
2022/01/01 00:17:45;;;;;;;49.97;15.90;;;11.10;99.90;;;;;;5074674;28;20020;-72
2022/01/01 00:20:12;;;;;;;44.35;17.08;;;11.20;99.90;;;;;;5086473;28;20030;-72
2022/01/01 00:22:39;;;;;;;53.17;20.27;;;11.20;99.90;;;;;;5096401;28;20020;-72
2022/01/01 00:25:05;;;;;;;73.47;22.20;;;11.20;99.90;;;;;;5074585;28;20036;-72
2022/01/01 00:27:31;;;;;;;68.35;25.70;;;11.20;99.90;;;;;;5075784;28;20037;-72
2022/01/01 00:29:56;;;;;;;68.78;27.23;;;11.20;99.90;;;;;;5074743;28;20066;-72
2022/01/01 00:32:22;;;;;;;76.47;27.75;;;11.20;99.90;;;;;;5076387;28;20095;-72
2022/01/01 00:34:50;;;;;;;94.70;36.90;;;11.20;99.90;;;;;;5075985;28;20020;-72
2022/01/01 00:37:16;;;;;;;106.65;38.83;;;11.20;99.90;;;;;;5074633;28;20064;-72
2022/01/01 00:39:41;;;;;;;94.65;40.17;;;11.10;99.90;;;;;;5076112;28;20028;-72
2022/01/01 00:42:07;;;;;;;100.85;38.88;;;11.20;99.90;;;;;;5075527;28;20077;-72
2022/01/01 00:44:32;;;;;;;97.35;39.95;;;11.20;99.90;;;;;;5075710;28;20024;-72
2022/01/01 00:46:58;;;;;;;97.85;37.42;;;11.30;99.90;;;;;;5075579;28;20070;-72
2022/01/01 00:49:24;;;;;;;102.40;42.72;;;11.30;99.90;;;;;;5075776;28;20025;-72
2022/01/01 00:51:50;;;;;;;106.40;42.38;;;11.20;99.90;;;;;;5075029;28;20472;-73
2022/01/01 00:54:16;;;;;;;113.22;45.45;;;11.20;99.90;;;;;;5075192;28;20069;-72
2022/01/01 00:56:41;;;;;;;106.68;44.65;;;11.20;99.90;;;;;;5077786;28;20024;-72
2022/01/01 00:59:07;;;;;;;118.88;48.33;;;11.20;99.90;;;;;;5089458;28;20029;-72
2022/01/01 01:01:32;;;;;;;115.80;46.83;;;11.10;99.90;;;;;;5091281;28;20024;-72
2022/01/01 01:03:58;;;;;;;117.65;45.47;;;11.10;99.90;;;;;;5093555;28;20024;-72
2022/01/01 01:06:23;;;;;;;104.05;42.45;;;11.00;99.90;;;;;;5087013;28;20020;-72
2022/01/01 01:08:51;;;;;;;112.03;43.03;;;11.10;99.90;;;;;;5085166;28;20109;-72
2022/01/01 01:11:17;;;;;;;100.53;37.72;;;11.10;99.90;;;;;;5081102;28;20013;-72
2022/01/01 01:13:45;;;;;;;91.07;35.13;;;11.10;99.90;;;;;;5075025;28;20032;-72
2022/01/01 01:16:11;;;;;;;94.18;35.58;;;11.00;99.90;;;;;;5078004;28;20047;-72
2022/01/01 01:18:36;;;;;;;72.00;29.05;;;11.10;99.90;;;;;;5073938;28;20020;-72
2022/01/01 01:21:02;;;;;;;88.88;31.90;;;11.00;99.90;;;;;;5083088;28;20354;-73
2022/01/01 01:23:28;;;;;;;70.10;29.30;;;11.00;99.90;;;;;;5077514;28;20025;-73
2022/01/01 01:25:56;;;;;;;76.22;28.80;;;11.00;99.90;;;;;;5075254;28;20038;-73
2022/01/01 01:28:21;;;;;;;83.95;28.75;;;11.10;99.90;;;;;;5087205;28;20074;-72
2022/01/01 01:30:47;;;;;;;59.25;21.02;;;11.10;99.90;;;;;;5093691;28;20126;-72
2022/01/01 01:33:13;;;;;;;64.88;21.85;;;11.10;99.90;;;;;;5094956;28;20013;-72
2022/01/01 01:35:39;;;;;;;70.47;24.55;;;11.10;99.90;;;;;;5089052;28;20085;-73
2022/01/01 01:38:04;;;;;;;73.20;23.45;;;11.10;99.90;;;;;;5074802;28;20047;-72
2022/01/01 01:40:30;;;;;;;65.32;22.02;;;11.10;99.90;;;;;;5074542;28;20533;-72
2022/01/01 01:42:56;;;;;;;55.92;18.50;;;11.10;99.90;;;;;;5073176;28;20035;-73
2022/01/01 01:45:27;;;;;;;64.60;18.95;;;11.10;99.90;;;;;;5074746;28;20488;-73
2022/01/01 01:47:52;;;;;;;64.28;18.63;;;11.10;99.90;;;;;;5081293;28;20019;-72
2022/01/01 01:50:19;;;;;;;53.95;18.48;;;11.10;99.90;;;;;;5076701;28;20025;-72
2022/01/01 01:52:50;;;;;;;49.20;14.68;;;11.20;99.90;;;;;;5074274;28;20361;-72
2022/01/01 01:55:16;;;;;;;48.45;16.33;;;11.20;99.90;;;;;;5074892;28;20020;-75
2022/01/01 01:57:42;;;;;;;54.03;17.48;;;11.20;99.90;;;;;;5081291;28;20361;-73
2022/01/01 02:00:46;;;;;;;43.83;14.25;;;11.30;99.90;;;;;;5088517;28;20023;-72
2022/01/01 02:03:09;;;;;;;45.95;16.48;;;11.40;99.90;;;;;;5082682;28;20093;-73
2022/01/01 02:05:35;;;;;;;54.28;15.27;;;11.40;99.90;;;;;;5084206;28;20055;-72
2022/01/01 02:08:02;;;;;;;54.05;15.23;;;11.40;99.90;;;;;;5085630;28;20034;-72
2022/01/01 02:10:28;;;;;;;40.90;13.63;;;11.50;99.90;;;;;;5094531;28;20358;-72
2022/01/01 02:12:56;;;;;;;42.65;13.73;;;11.50;99.90;;;;;;5094354;28;20028;-72
2022/01/01 02:15:47;;;;;;;45.45;14.75;;;11.50;99.90;;;;;;5093769;28;20471;-72
2022/01/01 02:18:13;;;;;;;51.10;13.65;;;11.50;99.90;;;;;;5093839;28;20107;-72
2022/01/01 02:20:38;;;;;;;41.58;13.55;;;11.60;99.90;;;;;;5092676;28;20172;-72
2022/01/01 02:23:05;;;;;;;47.50;13.00;;;11.60;99.90;;;;;;5094245;28;20028;-73
2022/01/01 02:25:31;;;;;;;43.03;12.57;;;11.60;99.90;;;;;;5092764;28;20020;-75
2022/01/01 02:27:57;;;;;;;35.95;11.05;;;11.60;99.90;;;;;;5095007;28;20027;-75
2022/01/01 02:30:23;;;;;;;51.78;13.93;;;11.60;99.90;;;;;;5093076;28;20100;-75
2022/01/01 02:32:49;;;;;;;37.55;10.40;;;11.70;99.90;;;;;;5093173;28;20408;-75
2022/01/01 02:35:16;;;;;;;47.25;11.63;;;11.70;99.90;;;;;;5092968;28;20024;-74
2022/01/01 02:37:42;;;;;;;38.53;12.32;;;11.70;99.90;;;;;;5092872;28;20077;-75
2022/01/01 02:40:09;;;;;;;37.22;10.50;;;11.70;99.90;;;;;;5093010;28;20027;-75
2022/01/01 02:42:37;;;;;;;32.35;11.80;;;11.70;99.90;;;;;;5092902;28;20066;-75
2022/01/01 02:45:07;;;;;;;32.90;8.83;;;12.60;99.90;;;;;;5094324;28;20499;-75
2022/01/01 02:47:33;;;;;;;33.50;9.23;;;11.80;99.90;;;;;;5094136;28;20024;-75
2022/01/01 02:49:59;;;;;;;32.60;10.38;;;11.80;99.90;;;;;;5092663;28;20066;-75
2022/01/01 02:52:24;;;;;;;29.90;9.60;;;11.80;99.90;;;;;;5092965;28;20017;-75
2022/01/01 02:54:50;;;;;;;32.58;10.77;;;11.80;99.90;;;;;;5093075;28;20020;-75
2022/01/01 02:57:16;;;;;;;34.33;9.70;;;11.90;99.90;;;;;;5092944;28;20468;-75
2022/01/01 02:59:42;;;;;;;32.60;10.13;;;11.90;99.90;;;;;;5094919;28;20443;-74
2022/01/01 03:02:07;;;;;;;34.88;10.02;;;11.90;99.90;;;;;;5092535;28;20028;-75
2022/01/01 03:04:33;;;;;;;38.55;10.30;;;11.90;99.90;;;;;;5094024;28;20120;-75
2022/01/01 03:06:59;;;;;;;31.75;9.57;;;11.90;99.90;;;;;;5094615;28;20105;-75
2022/01/01 03:09:28;;;;;;;36.92;10.63;;;11.80;99.90;;;;;;5094569;28;20456;-75
2022/01/01 03:11:53;;;;;;;30.38;8.98;;;11.90;99.90;;;;;;5094076;28;20012;-75
2022/01/01 03:14:19;;;;;;;38.17;10.13;;;12.00;99.90;;;;;;5093687;28;20461;-75
2022/01/01 03:16:45;;;;;;;40.40;11.05;;;11.90;99.90;;;;;;5092418;28;20028;-75
2022/01/01 03:19:11;;;;;;;36.72;10.85;;;11.90;99.90;;;;;;5093737;28;20472;-75
2022/01/01 03:21:37;;;;;;;33.55;10.65;;;11.90;99.90;;;;;;5093625;28;20078;-75
2022/01/01 03:24:03;;;;;;;32.33;10.77;;;13.50;99.90;;;;;;5092518;28;20016;-75
2022/01/01 03:26:28;;;;;;;35.15;10.43;;;11.90;99.90;;;;;;5094621;28;20062;-75
2022/01/01 03:28:54;;;;;;;31.27;11.07;;;11.90;99.90;;;;;;5096297;28;20055;-75
2022/01/01 03:31:19;;;;;;;42.53;12.05;;;12.00;99.90;;;;;;5097565;28;20058;-75
2022/01/01 03:33:45;;;;;;;34.67;11.68;;;11.90;99.90;;;;;;5097899;28;20477;-74
2022/01/01 03:36:11;;;;;;;37.47;11.52;;;12.00;99.90;;;;;;5097808;28;20031;-75
2022/01/01 03:38:36;;;;;;;31.65;10.38;;;12.00;99.90;;;;;;5097718;28;20369;-75
2022/01/01 03:41:02;;;;;;;33.25;10.13;;;12.00;99.90;;;;;;5096173;28;20074;-75
2022/01/01 03:43:28;;;;;;;33.60;10.18;;;11.90;99.90;;;;;;5096051;28;20034;-75
2022/01/01 03:45:53;;;;;;;33.15;10.25;;;11.90;99.90;;;;;;5096023;28;20023;-75
2022/01/01 03:48:19;;;;;;;32.58;10.38;;;11.90;99.90;;;;;;5096125;28;20028;-75
2022/01/01 03:50:44;;;;;;;41.75;10.60;;;11.90;99.90;;;;;;5097236;28;20376;-74
2022/01/01 03:53:10;;;;;;;39.65;10.93;;;12.00;99.90;;;;;;5097061;28;20473;-75
2022/01/01 03:55:37;;;;;;;35.97;11.77;;;12.00;99.90;;;;;;5096055;28;20529;-74
2022/01/01 03:58:02;;;;;;;39.83;10.85;;;12.00;99.90;;;;;;5096945;28;20392;-75
2022/01/01 04:00:28;;;;;;;28.45;10.93;;;12.00;99.90;;;;;;5095682;28;20027;-75
2022/01/01 04:02:54;;;;;;;34.00;11.27;;;11.90;99.90;;;;;;5086958;28;20058;-75
2022/01/01 04:05:19;;;;;;;37.55;10.85;;;11.90;99.90;;;;;;5092132;28;20031;-75
2022/01/01 04:07:45;;;;;;;26.60;10.68;;;12.00;99.90;;;;;;5093767;28;20048;-75
2022/01/01 04:10:11;;;;;;;34.25;9.63;;;12.00;99.90;;;;;;5095405;28;20084;-75
2022/01/01 04:12:36;;;;;;;32.35;8.80;;;12.00;99.90;;;;;;5095146;28;20024;-76
2022/01/01 04:15:03;;;;;;;39.53;9.50;;;12.00;99.90;;;;;;5096643;28;20021;-76
2022/01/01 04:17:29;;;;;;;39.78;9.93;;;12.00;99.90;;;;;;5096395;28;20492;-76
2022/01/01 04:19:54;;;;;;;28.63;9.70;;;12.00;99.90;;;;;;5096484;28;20020;-75
2022/01/01 04:22:20;;;;;;;30.98;8.00;;;12.00;99.90;;;;;;5095060;28;20107;-76
2022/01/01 04:24:45;;;;;;;27.85;9.20;;;12.00;99.90;;;;;;5094897;28;20031;-76
2022/01/01 04:27:11;;;;;;;26.08;9.15;;;12.00;99.90;;;;;;5096372;28;20036;-75
2022/01/01 04:29:38;;;;;;;24.63;9.45;;;12.00;99.90;;;;;;5095994;28;20492;-75
2022/01/01 04:32:04;;;;;;;29.35;9.10;;;12.00;99.90;;;;;;5094803;28;20047;-75
2022/01/01 04:34:30;;;;;;;22.23;8.00;;;12.10;99.90;;;;;;5096078;28;20507;-76
2022/01/01 04:37:05;;;;;;;29.60;8.45;;;12.10;99.90;;;;;;5095530;28;20013;-76
2022/01/01 04:39:31;;;;;;;21.67;8.10;;;12.10;99.90;;;;;;5094765;28;20085;-76
2022/01/01 04:41:56;;;;;;;25.17;9.02;;;12.10;99.90;;;;;;5093188;28;20477;-74
2022/01/01 04:44:22;;;;;;;24.40;9.18;;;12.00;99.90;;;;;;5075480;28;20024;-79
2022/01/01 04:46:47;;;;;;;29.65;9.55;;;12.00;99.90;;;;;;5075431;28;20508;-77
2022/01/01 04:49:13;;;;;;;26.80;10.07;;;11.90;99.90;;;;;;5076462;28;20023;-78
2022/01/01 04:51:39;;;;;;;27.38;9.93;;;11.90;99.90;;;;;;5075813;28;20389;-76
2022/01/01 04:54:10;;;;;;;28.90;8.88;;;11.90;99.90;;;;;;5076164;28;20021;-75
2022/01/01 04:56:42;;;;;;;31.30;10.10;;;11.80;99.90;;;;;;5074151;28;20021;-76
2022/01/01 04:59:08;;;;;;;34.72;10.80;;;11.70;99.90;;;;;;5074210;28;20055;-76
2022/01/01 05:01:33;;;;;;;31.42;9.43;;;11.80;99.90;;;;;;5075179;28;20054;-76
2022/01/01 05:03:59;;;;;;;26.73;9.75;;;11.70;99.90;;;;;;5074042;28;20032;-77
2022/01/01 05:06:25;;;;;;;32.08;10.73;;;11.70;99.90;;;;;;5073947;28;20032;-77
2022/01/01 05:08:50;;;;;;;25.25;9.75;;;11.60;99.90;;;;;;5073938;28;20029;-77
2022/01/01 05:11:16;;;;;;;36.75;11.98;;;11.60;99.90;;;;;;5073818;28;20034;-75
2022/01/01 05:13:41;;;;;;;26.70;8.95;;;11.60;99.90;;;;;;5073900;28;20473;-76
2022/01/01 05:16:07;;;;;;;33.80;10.20;;;11.60;99.90;;;;;;5073830;28;20090;-76
2022/01/01 05:18:36;;;;;;;31.77;9.88;;;11.60;99.90;;;;;;5075128;28;20031;-75
2022/01/01 05:21:02;;;;;;;33.47;10.07;;;11.60;99.90;;;;;;5074885;28;20025;-76
2022/01/01 05:23:27;;;;;;;34.85;10.15;;;11.60;99.90;;;;;;5074929;28;20028;-76
2022/01/01 05:25:53;;;;;;;28.65;9.15;;;11.60;99.90;;;;;;5075154;28;20115;-74
2022/01/01 05:28:18;;;;;;;23.20;8.68;;;11.60;99.90;;;;;;5075095;28;20421;-77
2022/01/01 05:30:44;;;;;;;30.83;9.13;;;11.60;99.90;;;;;;5075019;28;20032;-75
2022/01/01 05:33:09;;;;;;;24.83;8.27;;;11.70;99.90;;;;;;5075534;28;20107;-75
2022/01/01 05:35:35;;;;;;;25.45;8.18;;;11.70;99.90;;;;;;5073466;28;20392;-77
2022/01/01 05:38:00;;;;;;;24.08;6.95;;;11.80;99.90;;;;;;5073381;28;20035;-75
2022/01/01 05:40:26;;;;;;;24.42;7.35;;;11.80;99.90;;;;;;5075523;28;20461;-77
2022/01/01 05:42:51;;;;;;;18.30;6.47;;;11.80;99.90;;;;;;5073714;28;20027;-78
2022/01/01 05:45:17;;;;;;;28.95;8.07;;;11.90;99.90;;;;;;5074755;28;20024;-77
2022/01/01 05:47:43;;;;;;;16.52;5.45;;;11.90;99.90;;;;;;5073213;28;20021;-77
2022/01/01 05:50:09;;;;;;;20.77;6.10;;;11.90;99.90;;;;;;5072739;28;20024;-78
2022/01/01 05:52:34;;;;;;;15.88;5.35;;;11.90;99.90;;;;;;5074416;28;20025;-78
2022/01/01 05:55:00;;;;;;;18.70;6.95;;;11.80;99.90;;;;;;5074681;28;20074;-77
2022/01/01 05:57:25;;;;;;;21.27;6.60;;;11.70;99.90;;;;;;5074852;28;20381;-77
2022/01/01 05:59:51;;;;;;;18.15;5.43;;;11.70;99.90;;;;;;5074251;28;20025;-75
2022/01/01 06:02:16;;;;;;;23.70;6.05;;;11.70;99.90;;;;;;5074238;28;20048;-77
2022/01/01 06:04:42;;;;;;;19.35;5.85;;;11.60;99.90;;;;;;5074909;28;20503;-78
2022/01/01 06:07:08;;;;;;;21.55;6.13;;;11.60;99.90;;;;;;5075110;28;20035;-78
2022/01/01 06:09:34;;;;;;;20.55;5.88;;;11.50;99.90;;;;;;5074740;28;20024;-78
2022/01/01 06:11:59;;;;;;;16.95;5.18;;;11.50;99.90;;;;;;5073030;28;20036;-78
2022/01/01 06:14:25;;;;;;;16.52;5.38;;;11.40;99.90;;;;;;5072961;28;20017;-75
2022/01/01 06:16:51;;;;;;;12.57;4.93;;;11.40;99.90;;;;;;5074112;28;20099;-78
2022/01/01 06:19:16;;;;;;;14.07;5.82;;;11.30;99.90;;;;;;5074637;28;20020;-77
2022/01/01 06:21:42;;;;;;;15.25;5.70;;;11.20;99.90;;;;;;5073907;28;20021;-75
2022/01/01 06:24:07;;;;;;;15.07;5.88;;;11.20;99.90;;;;;;5073023;28;20028;-77
2022/01/01 06:26:33;;;;;;;18.02;6.35;;;11.20;99.90;;;;;;5074078;28;20024;-75
2022/01/01 06:29:00;;;;;;;17.20;6.03;;;11.20;99.90;;;;;;5073851;28;20020;-78
2022/01/01 06:31:26;;;;;;;22.63;7.00;;;11.20;99.90;;;;;;5072635;28;20048;-77
2022/01/01 06:33:51;;;;;;;16.20;5.20;;;11.20;99.90;;;;;;5074425;28;20047;-75
2022/01/01 06:36:17;;;;;;;21.17;6.25;;;11.20;99.90;;;;;;5074255;28;20048;-75
2022/01/01 06:38:44;;;;;;;21.17;5.90;;;11.20;99.90;;;;;;5073706;28;20028;-75
2022/01/01 06:41:10;;;;;;;19.13;7.28;;;11.20;99.90;;;;;;5074006;28;20031;-75
2022/01/01 06:43:37;;;;;;;17.70;6.18;;;11.20;99.90;;;;;;5073793;28;20070;-74
2022/01/01 06:46:02;;;;;;;15.68;5.68;;;11.20;99.90;;;;;;5073652;28;20052;-74
2022/01/01 06:48:28;;;;;;;15.52;5.97;;;11.20;99.90;;;;;;5072435;28;20563;-76
2022/01/01 06:50:54;;;;;;;24.00;7.57;;;11.20;99.90;;;;;;5073509;28;20098;-76
2022/01/01 06:53:19;;;;;;;21.65;5.75;;;11.20;99.90;;;;;;5072315;28;20024;-75
2022/01/01 06:55:45;;;;;;;19.15;5.75;;;11.30;99.90;;;;;;5073533;28;20035;-75
2022/01/01 06:58:11;;;;;;;14.45;5.18;;;11.30;99.90;;;;;;5072418;28;20020;-75
2022/01/01 07:00:37;;;;;;;11.32;5.47;;;11.40;99.90;;;;;;5076040;28;20101;-75
2022/01/01 07:03:03;;;;;;;16.40;4.70;;;11.40;99.90;;;;;;5076385;28;20469;-75
2022/01/01 07:05:29;;;;;;;17.15;5.40;;;11.40;99.90;;;;;;5077843;28;20028;-75
2022/01/01 07:07:55;;;;;;;13.68;4.90;;;11.50;99.90;;;;;;5077837;28;20099;-75
2022/01/01 07:10:20;;;;;;;15.45;5.60;;;11.50;99.90;;;;;;5076175;28;20019;-76
2022/01/01 07:12:46;;;;;;;15.93;5.03;;;11.50;99.90;;;;;;5077455;28;20029;-74
2022/01/01 07:15:15;;;;;;;14.40;4.43;;;11.50;99.90;;;;;;5077572;28;20027;-77
2022/01/01 07:17:40;;;;;;;13.52;4.25;;;11.50;99.90;;;;;;5077571;28;20388;-75
2022/01/01 07:20:07;;;;;;;12.77;4.40;;;11.60;99.90;;;;;;5076105;28;20024;-77
2022/01/01 07:22:39;;;;;;;14.80;4.65;;;11.60;99.90;;;;;;5076166;28;20024;-74
2022/01/01 07:25:05;;;;;;;16.48;4.25;;;11.70;99.90;;;;;;5077139;28;20025;-75
2022/01/01 07:27:30;;;;;;;10.52;4.28;;;11.70;99.90;;;;;;5077039;28;20515;-76
2022/01/01 07:29:56;;;;;;;13.40;3.83;;;11.70;99.90;;;;;;5075710;28;20035;-76
2022/01/01 07:32:21;;;;;;;14.77;3.28;;;11.70;99.90;;;;;;5076227;28;20048;-76
2022/01/01 07:34:47;;;;;;;9.85;3.50;;;11.70;99.90;;;;;;5076901;28;20013;-75
2022/01/01 07:37:12;;;;;;;11.40;3.35;;;11.70;99.90;;;;;;5077205;28;20562;-74
2022/01/01 07:39:38;;;;;;;15.82;4.90;;;11.70;99.90;;;;;;5075467;28;20024;-75
2022/01/01 07:42:04;;;;;;;15.40;2.97;;;11.80;99.90;;;;;;5075746;28;20108;-74
2022/01/01 07:44:30;;;;;;;17.20;4.22;;;11.70;99.90;;;;;;5076538;28;20036;-74
2022/01/01 07:46:55;;;;;;;8.77;2.80;;;11.80;99.90;;;;;;5075195;28;20027;-76
2022/01/01 07:49:21;;;;;;;14.27;3.05;;;11.80;99.90;;;;;;5075273;28;20024;-76
2022/01/01 07:51:46;;;;;;;11.10;2.30;;;11.80;99.90;;;;;;5076614;28;20025;-76
2022/01/01 07:54:12;;;;;;;11.27;2.65;;;11.80;99.90;;;;;;5076793;28;20381;-76
2022/01/01 07:56:38;;;;;;;8.07;2.53;;;11.80;99.90;;;;;;5076590;28;20064;-76
2022/01/01 07:59:03;;;;;;;14.15;4.13;;;11.80;99.90;;;;;;5076561;28;20040;-76
2022/01/01 08:01:29;;;;;;;8.95;2.83;;;11.80;99.90;;;;;;5076456;28;20024;-76
2022/01/01 08:04:01;;;;;;;8.63;2.75;;;11.80;99.90;;;;;;5075124;28;20025;-76
2022/01/01 08:06:27;;;;;;;8.77;2.22;;;11.80;99.90;;;;;;5076485;28;20032;-76
2022/01/01 08:08:53;;;;;;;8.20;2.10;;;11.90;99.90;;;;;;5076368;28;20029;-76
2022/01/01 08:11:18;;;;;;;10.10;2.28;;;12.00;99.90;;;;;;5075237;28;20477;-76
2022/01/01 08:13:43;;;;;;;8.48;2.47;;;12.00;99.90;;;;;;5076694;28;20021;-76
2022/01/01 08:16:09;;;;;;;8.52;2.03;;;12.00;99.90;;;;;;5074950;28;20024;-78
2022/01/01 08:18:35;;;;;;;12.60;3.35;;;12.00;99.90;;;;;;5075053;28;20048;-77
2022/01/01 08:21:00;;;;;;;7.93;2.38;;;12.00;99.90;;;;;;5074685;28;20542;-75
2022/01/01 08:23:26;;;;;;;7.93;1.67;;;12.10;99.90;;;;;;5076166;28;20020;-76
2022/01/01 08:25:51;;;;;;;8.05;3.13;;;12.10;99.90;;;;;;5074797;28;20021;-76
2022/01/01 08:28:17;;;;;;;6.65;1.80;;;12.10;99.90;;;;;;5074827;28;20103;-76
2022/01/01 08:30:42;;;;;;;9.25;2.45;;;12.20;99.90;;;;;;5076467;28;20342;-76
2022/01/01 08:33:08;;;;;;;17.58;1.90;;;12.20;99.90;;;;;;5074304;28;20016;-77
2022/01/01 08:35:35;;;;;;;8.15;2.28;;;12.20;99.90;;;;;;5075687;28;20055;-76
2022/01/01 08:38:04;;;;;;;9.60;1.75;;;12.20;99.90;;;;;;5075336;28;20021;-76
2022/01/01 08:40:30;;;;;;;5.88;1.75;;;12.20;99.90;;;;;;5073942;28;20165;-75
2022/01/01 08:42:56;;;;;;;6.05;1.52;;;12.20;99.90;;;;;;5075826;28;20028;-76
2022/01/01 08:45:22;;;;;;;6.47;1.50;;;12.20;99.90;;;;;;5073955;28;20025;-76
2022/01/01 08:47:48;;;;;;;7.05;1.45;;;12.20;99.90;;;;;;5075035;28;20024;-76
2022/01/01 08:50:14;;;;;;;6.53;1.27;;;12.30;99.90;;;;;;5073792;28;20032;-76
2022/01/01 08:52:40;;;;;;;13.65;2.35;;;12.30;99.90;;;;;;5074946;28;20469;-76
2022/01/01 08:55:06;;;;;;;6.10;1.27;;;12.30;99.90;;;;;;5075005;28;20100;-77
2022/01/01 08:57:32;;;;;;;9.70;1.30;;;12.30;99.90;;;;;;5074868;28;20037;-76
2022/01/01 08:59:59;;;;;;;12.57;2.22;;;12.30;99.90;;;;;;5074896;28;20025;-76
2022/01/01 09:02:25;;;;;;;11.75;2.38;;;12.30;99.90;;;;;;5074800;28;20016;-76
2022/01/01 09:04:51;;;;;;;5.50;1.33;;;12.40;99.90;;;;;;5073572;28;20027;-76
2022/01/01 09:07:17;;;;;;;5.35;2.00;;;12.40;99.90;;;;;;5074554;28;20029;-76
2022/01/01 09:09:44;;;;;;;11.52;2.70;;;12.40;99.90;;;;;;5073444;28;20480;-76
2022/01/01 09:12:10;;;;;;;13.45;1.67;;;12.40;99.90;;;;;;5073343;28;20396;-76
2022/01/01 09:14:37;;;;;;;6.57;1.67;;;12.50;99.90;;;;;;5074581;28;20017;-76
2022/01/01 09:17:04;;;;;;;9.60;1.48;;;12.50;99.90;;;;;;5073353;28;20469;-76
2022/01/01 09:19:30;;;;;;;11.70;2.15;;;12.40;99.90;;;;;;5074519;28;20035;-76
2022/01/01 09:21:55;;;;;;;8.40;1.70;;;12.40;99.90;;;;;;5073261;28;20020;-75
2022/01/01 09:24:21;;;;;;;6.97;1.85;;;12.40;99.90;;;;;;5074409;28;20020;-75
2022/01/01 09:26:46;;;;;;;11.27;1.88;;;12.40;99.90;;;;;;5073071;28;20060;-75
2022/01/01 09:29:12;;;;;;;7.43;2.33;;;12.40;99.90;;;;;;5072950;28;20366;-76
2022/01/01 09:31:39;;;;;;;7.78;1.92;;;12.40;99.90;;;;;;5073066;28;20035;-77
2022/01/01 09:34:05;;;;;;;6.82;2.15;;;12.30;99.90;;;;;;5072972;28;20013;-75
2022/01/01 09:36:31;;;;;;;4.97;1.60;;;12.30;99.90;;;;;;5074295;28;20091;-76
2022/01/01 09:38:57;;;;;;;8.10;2.22;;;12.40;99.90;;;;;;5074445;28;20095;-76
2022/01/01 09:41:23;;;;;;;6.38;3.17;;;12.40;99.90;;;;;;5072747;28;20051;-76
2022/01/01 09:43:48;;;;;;;7.43;2.17;;;12.40;99.90;;;;;;5072776;28;20028;-76
2022/01/01 09:46:15;;;;;;;8.35;2.72;;;12.30;99.90;;;;;;5073954;28;20530;-76
2022/01/01 09:48:41;;;;;;;7.43;2.50;;;12.40;99.90;;;;;;5073607;28;20024;-75
2022/01/01 09:51:08;;;;;;;6.63;1.73;;;12.40;99.90;;;;;;5073886;28;20504;-77
2022/01/01 09:53:34;;;;;;;10.32;2.00;;;12.30;99.90;;;;;;5072589;28;20021;-77
2022/01/01 09:56:01;;;;;;;7.30;2.33;;;12.40;99.90;;;;;;5074159;28;20024;-75
2022/01/01 09:58:29;;;;;;;9.25;1.80;;;12.40;99.90;;;;;;5072507;28;20036;-76
2022/01/01 10:00:55;;;;;;;7.35;2.90;;;12.40;99.90;;;;;;5073780;28;20020;-76
2022/01/01 10:03:48;;;;;;;7.63;2.30;;;12.40;99.90;;;;;;5074144;28;20039;-75
2022/01/01 10:06:20;;;;;;;10.30;3.95;;;12.50;99.90;;;;;;5073070;28;20054;-75
2022/01/01 10:08:46;;;;;;;9.95;2.75;;;12.50;99.90;;;;;;5073516;28;20032;-75
2022/01/01 10:11:16;;;;;;;12.82;3.30;;;12.50;99.90;;;;;;5072312;28;20083;-74
2022/01/01 10:13:42;;;;;;;7.30;2.67;;;12.50;99.90;;;;;;5073775;28;20024;-75
2022/01/01 10:16:10;;;;;;;9.10;2.88;;;12.50;99.90;;;;;;5072545;28;20016;-75
2022/01/01 10:18:55;;;;;;;9.57;4.00;;;12.60;99.90;;;;;;5073521;28;20035;-74
2022/01/01 10:21:25;;;;;;;10.55;2.80;;;12.60;99.90;;;;;;5072447;28;20059;-75
2022/01/01 10:23:53;;;;;;;13.60;3.97;;;12.60;99.90;;;;;;5073372;28;20028;-74
2022/01/01 10:29:26;;;;;;;9.35;3.00;;;12.70;99.90;;;;;;5073905;28;20107;-74
2022/01/01 10:31:56;;;;;;;14.85;3.90;;;12.70;99.90;;;;;;5071998;28;20016;-75
2022/01/01 10:34:26;;;;;;;8.30;3.30;;;12.70;99.90;;;;;;5071535;28;20021;-74
2022/01/01 10:36:52;;;;;;;8.55;3.10;;;12.70;99.90;;;;;;5073186;28;20358;-75
2022/01/01 10:39:18;;;;;;;9.57;3.72;;;12.70;99.90;;;;;;5073263;28;20028;-75
2022/01/01 10:41:49;;;;;;;6.05;3.22;;;12.70;99.90;;;;;;5072187;28;20032;-74
2022/01/01 10:44:20;;;;;;;10.32;4.20;;;12.80;99.90;;;;;;5073870;28;20386;-75
2022/01/01 10:46:45;;;;;;;11.55;4.05;;;12.70;99.90;;;;;;5073510;28;20111;-75
2022/01/01 10:52:24;;;;;;;7.00;3.50;;;12.70;99.90;;;;;;5073821;28;20029;-75
2022/01/01 10:54:54;;;;;;;15.30;4.15;;;12.60;99.90;;;;;;5072399;28;20052;-75
2022/01/01 10:57:27;;;;;;;14.60;4.15;;;12.70;99.90;;;;;;5073423;28;20028;-75
2022/01/01 11:00:05;;;;;;;12.95;4.10;;;12.70;99.90;;;;;;5071974;28;20029;-76
2022/01/01 11:02:39;;;;;;;9.95;3.63;;;12.70;99.90;;;;;;5072070;28;20020;-76
2022/01/01 11:05:06;;;;;;;10.02;3.83;;;12.70;99.90;;;;;;5073725;28;20031;-77
2022/01/01 11:07:32;;;;;;;13.90;5.63;;;12.80;99.90;;;;;;5072001;28;20062;-75
2022/01/01 11:09:59;;;;;;;8.70;4.28;;;12.90;99.90;;;;;;5073437;28;20024;-76
2022/01/01 11:12:27;;;;;;;13.93;4.63;;;12.90;99.90;;;;;;5072239;28;20024;-76
2022/01/01 11:14:54;;;;;;;10.30;4.28;;;13.00;99.90;;;;;;5073337;28;20070;-75
2022/01/01 11:17:21;;;;;;;8.88;3.63;;;13.10;99.90;;;;;;5073137;28;20055;-77
2022/01/01 11:19:47;;;;;;;11.55;4.55;;;13.20;99.90;;;;;;5071804;28;20052;-77
2022/01/01 11:22:14;;;;;;;13.82;4.45;;;13.10;99.90;;;;;;5073807;28;20024;-77
2022/01/01 11:24:44;;;;;;;11.13;3.33;;;13.20;99.90;;;;;;5073348;28;20089;-77
2022/01/01 11:27:09;;;;;;;12.48;4.30;;;13.20;99.90;;;;;;5071670;28;20036;-77
2022/01/01 11:29:35;;;;;;;7.30;3.08;;;13.20;99.90;;;;;;5072981;28;20540;-78
2022/01/01 11:32:06;;;;;;;9.50;3.38;;;13.30;99.90;;;;;;5073113;28;20024;-77
2022/01/01 11:34:36;;;;;;;9.10;4.00;;;13.30;99.90;;;;;;5072002;28;20070;-77
2022/01/01 11:37:02;;;;;;;10.27;3.58;;;13.40;99.90;;;;;;5072122;28;20024;-77
2022/01/01 11:39:28;;;;;;;10.73;3.72;;;13.50;99.90;;;;;;5071943;28;20027;-77
2022/01/01 11:42:09;;;;;;;11.25;4.32;;;13.50;99.90;;;;;;5072152;28;20021;-76
2022/01/01 11:44:35;;;;;;;9.52;4.22;;;14.60;99.90;;;;;;5072055;28;20485;-77
2022/01/01 11:47:03;;;;;;;13.13;4.07;;;13.60;99.90;;;;;;5074162;28;20033;-78
2022/01/01 11:49:30;;;;;;;12.82;3.72;;;13.60;99.90;;;;;;5078266;28;20016;-79
2022/01/01 11:51:57;;;;;;;16.60;4.13;;;13.60;99.90;;;;;;5077623;28;20035;-78
2022/01/01 11:54:31;;;;;;;6.00;2.70;;;13.70;99.90;;;;;;5076593;28;20096;-78
2022/01/01 11:56:59;;;;;;;8.55;3.53;;;13.60;99.90;;;;;;5076666;28;20074;-78
2022/01/01 11:59:37;;;;;;;7.30;3.97;;;13.70;99.90;;;;;;5077582;28;20048;-80
2022/01/01 12:02:18;;;;;;;10.27;3.10;;;13.80;99.90;;;;;;5080617;28;20028;-80
2022/01/01 12:04:46;;;;;;;9.88;3.38;;;13.70;99.90;;;;;;5078758;28;20461;-79
2022/01/01 12:07:20;;;;;;;11.80;3.50;;;13.60;99.90;;;;;;5075384;28;20027;-77
2022/01/01 12:09:58;;;;;;;9.52;4.05;;;13.50;99.90;;;;;;5076406;28;20167;-78
2022/01/01 12:12:53;;;;;;;11.55;3.78;;;13.50;99.90;;;;;;5077064;28;20024;-78
2022/01/01 12:15:22;;;;;;;8.05;3.85;;;13.50;99.90;;;;;;5075417;28;20029;-77
2022/01/01 12:18:01;;;;;;;6.03;2.75;;;13.50;99.90;;;;;;5076379;28;20025;-77
2022/01/01 12:20:27;;;;;;;;;;;13.50;99.90;;;;;;5076900;28;20028;-77
2022/01/01 12:22:53;;;;;;;6.68;2.70;;;13.60;99.90;;;;;;5074737;28;20326;-77
2022/01/01 12:25:28;;;;;;;9.82;3.15;;;13.80;99.90;;;;;;5074679;28;20075;-78
2022/01/01 12:28:00;;;;;;;7.70;3.03;;;13.60;99.90;;;;;;5074892;28;20028;-78
2022/01/01 12:30:34;;;;;;;7.05;3.15;;;13.60;99.90;;;;;;5075091;28;20507;-78
2022/01/01 12:33:00;;;;;;;8.55;2.60;;;13.60;99.90;;;;;;5075483;28;20032;-78
2022/01/01 12:35:38;;;;;;;8.35;3.13;;;13.50;99.90;;;;;;5075968;28;20515;-77
2022/01/01 12:38:19;;;;;;;9.15;3.60;;;13.50;99.90;;;;;;5076315;28;20098;-77
2022/01/01 12:40:59;;;;;;;8.55;3.47;;;13.60;99.90;;;;;;5076128;28;20028;-77